createdAt,value
2016-06-02T00:00:40.582Z,0
2016-06-02T00:01:40.616Z,0
2016-06-02T00:02:40.635Z,0
2016-06-02T00:03:40.668Z,0
2016-06-02T00:04:40.765Z,0
2016-06-02T00:05:40.782Z,0
2016-06-02T00:06:40.817Z,0
2016-06-02T00:07:40.679Z,0
2016-06-02T00:08:40.916Z,0
2016-06-02T00:09:41.498Z,0
2016-06-02T00:10:41.406Z,0
2016-06-02T00:11:40.908Z,0
2016-06-02T00:12:41.084Z,0
2016-06-02T00:13:41.117Z,0
2016-06-02T00:14:40.839Z,0
2016-06-02T00:15:40.872Z,0
2016-06-02T00:16:41.234Z,0
2016-06-02T00:17:41.284Z,0
2016-06-02T00:18:41.365Z,0
2016-06-02T00:19:41.242Z,0
2016-06-02T00:20:41.386Z,0
2016-06-02T00:21:41.451Z,0
2016-06-02T00:22:41.532Z,0
2016-06-02T00:23:41.503Z,0
2016-06-02T00:24:41.584Z,0
2016-06-02T00:25:42.196Z,0
2016-06-02T00:26:41.683Z,0
2016-06-02T00:27:41.546Z,0
2016-06-02T00:28:41.719Z,0
2016-06-02T00:29:41.817Z,0
2016-06-02T00:30:41.819Z,0
2016-06-02T00:31:41.852Z,0
2016-06-02T00:32:41.918Z,0
2016-06-02T00:33:41.921Z,0
2016-06-02T00:34:41.830Z,0
2016-06-02T00:35:42.035Z,0
2016-06-02T00:36:41.913Z,0
2016-06-02T00:37:42.119Z,0
2016-06-02T00:38:42.138Z,0
2016-06-02T00:39:42.187Z,0
2016-06-02T00:40:42.268Z,0
2016-06-02T00:41:42.395Z,0
2016-06-02T00:42:42.304Z,0
2016-06-02T00:43:42.417Z,0
2016-06-02T00:44:42.420Z,0
2016-06-02T00:45:42.250Z,0
2016-06-02T00:46:42.456Z,0
2016-06-02T00:47:42.490Z,0
2016-06-02T00:48:42.555Z,0
2016-06-02T00:49:42.573Z,0
2016-06-02T00:50:42.639Z,0
2016-06-02T00:51:42.361Z,0
2016-06-02T00:52:42.675Z,0
2016-06-02T00:53:42.741Z,0
2016-06-02T00:54:42.822Z,0
2016-06-02T00:55:43.167Z,0
2016-06-02T00:56:42.858Z,0
2016-06-02T00:57:42.782Z,0
2016-06-02T00:58:42.660Z,0
2016-06-02T00:59:42.975Z,0
2016-06-02T01:00:43.010Z,0
2016-06-02T01:01:43.090Z,0
2016-06-02T01:02:42.999Z,0
2016-06-02T01:03:43.143Z,0
2016-06-02T01:04:42.895Z,0
2016-06-02T01:05:43.085Z,0
2016-06-02T01:06:43.260Z,0
2016-06-02T01:07:43.309Z,0
2016-06-02T01:08:43.390Z,0
2016-06-02T01:09:43.643Z,0
2016-06-02T01:10:44.176Z,0
2016-06-02T01:11:43.507Z,0
2016-06-02T01:12:43.526Z,0
2016-06-02T01:13:43.560Z,0
2016-06-02T01:14:43.594Z,0
2016-06-02T01:15:43.753Z,0
2016-06-02T01:16:43.756Z,0
2016-06-02T01:17:43.571Z,0
2016-06-02T01:18:43.808Z,0
2016-06-02T01:19:43.826Z,0
2016-06-02T01:20:43.767Z,0
2016-06-02T01:21:43.894Z,0
2016-06-02T01:22:43.631Z,0
2016-06-02T01:23:43.868Z,0
2016-06-02T01:24:44.840Z,0
2016-06-02T01:25:44.983Z,0
2016-06-02T01:26:43.939Z,0
2016-06-02T01:27:43.973Z,0
2016-06-02T01:28:44.178Z,0
2016-06-02T01:29:44.244Z,0
2016-06-02T01:30:44.106Z,0
2016-06-02T01:31:44.296Z,0
2016-06-02T01:32:44.330Z,0
2016-06-02T01:33:44.458Z,0
2016-06-02T01:34:44.272Z,0
2016-06-02T01:35:44.463Z,0
2016-06-02T01:36:44.357Z,0
2016-06-02T01:37:44.390Z,0
2016-06-02T01:38:44.612Z,0
2016-06-02T01:39:45.161Z,0
2016-06-02T01:40:45.461Z,0
2016-06-02T01:41:44.713Z,0
2016-06-02T01:42:44.748Z,0
2016-06-02T01:43:44.782Z,0
2016-06-02T01:44:44.581Z,0
2016-06-02T01:45:44.787Z,0
2016-06-02T01:46:44.758Z,0
2016-06-02T01:47:44.964Z,0
2016-06-02T01:48:45.060Z,0
2016-06-02T01:49:45.031Z,0
2016-06-02T01:50:45.081Z,0
2016-06-02T01:51:45.006Z,0
2016-06-02T01:52:45.243Z,0
2016-06-02T01:53:45.198Z,0
2016-06-02T01:54:46.061Z,0
2016-06-02T01:55:45.782Z,0
2016-06-02T01:56:45.332Z,0
2016-06-02T01:57:45.365Z,0
2016-06-02T01:58:45.259Z,0
2016-06-02T01:59:45.496Z,0
2016-06-02T02:00:45.514Z,0
2016-06-02T02:01:45.548Z,0
2016-06-02T02:02:45.629Z,0
2016-06-02T02:03:45.679Z,0
2016-06-02T02:04:45.650Z,0
2016-06-02T02:05:45.543Z,0
2016-06-02T02:06:45.765Z,0
2016-06-02T02:07:45.782Z,0
2016-06-02T02:08:45.818Z,0
2016-06-02T02:09:45.727Z,0
2016-06-02T02:10:46.385Z,0
2016-06-02T02:11:45.935Z,0
2016-06-02T02:12:46.000Z,0
2016-06-02T02:13:46.081Z,0
2016-06-02T02:14:45.786Z,0
2016-06-02T02:15:46.117Z,0
2016-06-02T02:16:46.010Z,0
2016-06-02T02:17:46.060Z,0
2016-06-02T02:18:46.234Z,0
2016-06-02T02:19:46.128Z,0
2016-06-02T02:20:46.317Z,0
2016-06-02T02:21:46.446Z,0
2016-06-02T02:22:46.401Z,0
2016-06-02T02:23:46.451Z,0
2016-06-02T02:24:46.531Z,0
2016-06-02T02:25:46.395Z,0
2016-06-02T02:26:46.411Z,0
2016-06-02T02:27:46.446Z,0
2016-06-02T02:28:46.700Z,0
2016-06-02T02:29:46.577Z,0
2016-06-02T02:30:46.594Z,0
2016-06-02T02:31:46.644Z,0
2016-06-02T02:32:46.850Z,0
2016-06-02T02:33:46.869Z,0
2016-06-02T02:34:46.730Z,0
2016-06-02T02:35:46.780Z,0
2016-06-02T02:36:46.846Z,0
2016-06-02T02:37:47.021Z,0
2016-06-02T02:38:47.038Z,0
2016-06-02T02:39:47.431Z,0
2016-06-02T02:40:47.154Z,0
2016-06-02T02:41:47.187Z,0
2016-06-02T02:42:47.221Z,0
2016-06-02T02:43:47.332Z,0
2016-06-02T02:44:47.179Z,0
2016-06-02T02:45:47.338Z,0
2016-06-02T02:46:47.309Z,0
2016-06-02T02:47:47.438Z,0
2016-06-02T02:48:47.456Z,0
2016-06-02T02:49:47.536Z,0
2016-06-02T02:50:47.556Z,0
2016-06-02T02:51:47.448Z,0
2016-06-02T02:52:47.639Z,0
2016-06-02T02:53:47.719Z,0
2016-06-02T02:54:47.816Z,0
2016-06-02T02:55:48.069Z,0
2016-06-02T02:56:47.650Z,0
2016-06-02T02:57:47.730Z,0
2016-06-02T02:58:47.905Z,0
2016-06-02T02:59:47.923Z,0
2016-06-02T03:00:47.988Z,0
2016-06-02T03:01:48.022Z,0
2016-06-02T03:02:48.072Z,0
2016-06-02T03:03:48.091Z,0
2016-06-02T03:04:48.139Z,0
2016-06-02T03:05:48.188Z,0
2016-06-02T03:06:48.223Z,5
2016-06-02T03:07:48.241Z,5
2016-06-02T03:08:48.150Z,5
2016-06-02T03:09:48.935Z,5
2016-06-02T03:10:48.390Z,5
2016-06-02T03:11:48.440Z,5
2016-06-02T03:12:48.177Z,5
2016-06-02T03:13:48.493Z,5
2016-06-02T03:14:48.370Z,5
2016-06-02T03:15:48.294Z,10
2016-06-02T03:16:48.671Z,10
2016-06-02T03:17:48.346Z,10
2016-06-02T03:18:48.551Z,10
2016-06-02T03:19:48.773Z,10
2016-06-02T03:20:48.495Z,10
2016-06-02T03:21:48.810Z,10
2016-06-02T03:22:48.406Z,10
2016-06-02T03:23:48.956Z,10
2016-06-02T03:24:49.225Z,15
2016-06-02T03:25:49.367Z,15
2016-06-02T03:26:48.886Z,15
2016-06-02T03:27:49.139Z,15
2016-06-02T03:28:48.994Z,15
2016-06-02T03:29:49.038Z,15
2016-06-02T03:30:49.128Z,15
2016-06-02T03:31:49.203Z,15
2016-06-02T03:32:49.419Z,15
2016-06-02T03:33:49.446Z,20
2016-06-02T03:34:49.225Z,20
2016-06-02T03:35:49.456Z,20
2016-06-02T03:36:49.607Z,20
2016-06-02T03:37:49.666Z,20
2016-06-02T03:38:49.720Z,20
2016-06-02T03:39:50.412Z,20
2016-06-02T03:40:50.278Z,15
2016-06-02T03:41:49.862Z,15
2016-06-02T03:42:49.773Z,15
2016-06-02T03:43:49.918Z,15
2016-06-02T03:44:50.031Z,15
2016-06-02T03:45:49.879Z,15
2016-06-02T03:46:50.038Z,15
2016-06-02T03:47:49.934Z,10
2016-06-02T03:48:50.015Z,10
2016-06-02T03:49:50.190Z,10
2016-06-02T03:50:50.052Z,10
2016-06-02T03:51:50.243Z,10
2016-06-02T03:52:50.152Z,5
2016-06-02T03:53:50.342Z,5
2016-06-02T03:54:50.220Z,5
2016-06-02T03:55:51.380Z,5
2016-06-02T03:56:50.321Z,5
2016-06-02T03:57:50.496Z,5
2016-06-02T03:58:50.561Z,0
2016-06-02T03:59:50.626Z,0
2016-06-02T04:00:50.612Z,0
2016-06-02T04:01:50.382Z,0
2016-06-02T04:02:50.728Z,0
2016-06-02T04:03:50.762Z,0
2016-06-02T04:04:50.795Z,0
2016-06-02T04:05:50.673Z,0
2016-06-02T04:06:50.942Z,0
2016-06-02T04:07:50.945Z,0
2016-06-02T04:08:50.791Z,0
2016-06-02T04:09:51.231Z,0
2016-06-02T04:10:51.124Z,0
2016-06-02T04:11:50.783Z,0
2016-06-02T04:12:51.098Z,0
2016-06-02T04:13:51.179Z,0
2016-06-02T04:14:50.900Z,0
2016-06-02T04:15:51.232Z,0
2016-06-02T04:16:51.124Z,0
2016-06-02T04:17:51.362Z,0
2016-06-02T04:18:51.208Z,0
2016-06-02T04:19:51.398Z,0
2016-06-02T04:20:51.479Z,0
2016-06-02T04:21:51.513Z,0
2016-06-02T04:22:51.407Z,0
2016-06-02T04:23:51.549Z,0
2016-06-02T04:24:51.927Z,0
2016-06-02T04:25:52.696Z,0
2016-06-02T04:26:51.682Z,0
2016-06-02T04:27:51.717Z,0
2016-06-02T04:28:51.813Z,0
2016-06-02T04:29:51.707Z,0
2016-06-02T04:30:51.866Z,0
2016-06-02T04:31:51.962Z,0
2016-06-02T04:32:51.995Z,5
2016-06-02T04:33:51.811Z,5
2016-06-02T04:34:51.876Z,5
2016-06-02T04:35:52.050Z,5
2016-06-02T04:36:51.959Z,5
2016-06-02T04:37:51.994Z,5
2016-06-02T04:38:52.184Z,5
2016-06-02T04:39:53.077Z,5
2016-06-02T04:40:52.252Z,5
2016-06-02T04:41:52.302Z,5
2016-06-02T04:42:52.383Z,5
2016-06-02T04:43:52.400Z,5
2016-06-02T04:44:52.419Z,5
2016-06-02T04:45:52.358Z,5
2016-06-02T04:46:52.534Z,5
2016-06-02T04:47:52.536Z,5
2016-06-02T04:48:52.586Z,5
2016-06-02T04:49:52.666Z,5
2016-06-02T04:50:52.576Z,5
2016-06-02T04:51:52.546Z,5
2016-06-02T04:52:52.612Z,5
2016-06-02T04:53:52.865Z,5
2016-06-02T04:54:53.243Z,5
2016-06-02T04:55:52.729Z,10
2016-06-02T04:56:52.951Z,10
2016-06-02T04:57:52.970Z,10
2016-06-02T04:58:53.003Z,10
2016-06-02T04:59:53.053Z,10
2016-06-02T05:00:53.665Z,10
2016-06-02T05:01:53.340Z,10
2016-06-02T05:02:53.952Z,15
2016-06-02T05:03:53.267Z,15
2016-06-02T05:04:53.598Z,15
2016-06-02T05:05:53.287Z,15
2016-06-02T05:06:53.369Z,15
2016-06-02T05:07:53.074Z,15
2016-06-02T05:08:53.405Z,15
2016-06-02T05:09:53.517Z,20
2016-06-02T05:10:55.098Z,20
2016-06-02T05:11:53.585Z,20
2016-06-02T05:12:53.572Z,20
2016-06-02T05:13:53.622Z,20
2016-06-02T05:14:53.703Z,20
2016-06-02T05:15:53.533Z,25
2016-06-02T05:16:53.739Z,25
2016-06-02T05:17:53.788Z,30
2016-06-02T05:18:53.823Z,30
2016-06-02T05:19:55.169Z,30
2016-06-02T05:20:53.781Z,35
2016-06-02T05:21:56.660Z,35
2016-06-02T05:22:57.380Z,40
2016-06-02T05:23:56.165Z,45
2016-06-02T05:25:10.120Z,50
2016-06-02T05:25:56.920Z,55
2016-06-02T05:26:56.391Z,60
2016-06-02T05:27:56.316Z,65
2016-06-02T05:28:56.709Z,70
2016-06-02T05:29:57.837Z,75
2016-06-02T05:30:57.277Z,75
2016-06-02T05:31:56.857Z,75
2016-06-02T05:32:56.814Z,80
2016-06-02T05:33:56.707Z,80
2016-06-02T05:34:57.523Z,85
2016-06-02T05:35:57.306Z,85
2016-06-02T05:36:57.418Z,90
2016-06-02T05:37:57.234Z,100
2016-06-02T05:38:56.580Z,105
2016-06-02T05:39:57.192Z,105
2016-06-02T05:40:58.164Z,105
2016-06-02T05:41:56.838Z,100
2016-06-02T05:42:57.216Z,100
2016-06-02T05:43:57.936Z,90
2016-06-02T05:44:57.627Z,90
2016-06-02T05:45:57.019Z,95
2016-06-02T05:46:58.086Z,100
2016-06-02T05:47:57.275Z,110
2016-06-02T05:48:57.122Z,110
2016-06-02T05:49:56.703Z,115
2016-06-02T05:50:57.533Z,120
2016-06-02T05:51:57.349Z,125
2016-06-02T05:52:58.038Z,130
2016-06-02T05:53:58.089Z,130
2016-06-02T05:54:57.732Z,135
2016-06-02T05:55:59.985Z,145
2016-06-02T05:56:58.362Z,150
2016-06-02T05:57:57.474Z,160
2016-06-02T05:58:57.555Z,165
2016-06-02T05:59:57.730Z,170
2016-06-02T06:00:58.326Z,170
2016-06-02T06:01:56.751Z,170
2016-06-02T06:02:55.691Z,170
2016-06-02T06:03:55.693Z,165
2016-06-02T06:04:58.259Z,165
2016-06-02T06:05:58.527Z,165
2016-06-02T06:06:58.015Z,170
2016-06-02T06:07:57.767Z,175
2016-06-02T06:08:57.926Z,180
2016-06-02T06:09:56.710Z,190
2016-06-02T06:10:55.884Z,205
2016-06-02T06:11:56.028Z,210
2016-06-02T06:12:56.031Z,220
2016-06-02T06:13:56.127Z,225
2016-06-02T06:15:02.786Z,230
2016-06-02T06:16:02.195Z,235
2016-06-02T06:16:59.838Z,240
2016-06-02T06:17:59.981Z,245
2016-06-02T06:19:00.797Z,250
2016-06-02T06:20:05.847Z,255
2016-06-02T06:21:00.365Z,250
2016-06-02T06:21:57.835Z,250
2016-06-02T06:22:58.558Z,255
2016-06-02T06:23:57.514Z,260
2016-06-02T06:24:57.047Z,270
2016-06-02T06:25:58.019Z,275
2016-06-02T06:26:56.616Z,285
2016-06-02T06:27:56.915Z,300
2016-06-02T06:28:56.683Z,315
2016-06-02T06:29:57.514Z,335
2016-06-02T06:30:57.438Z,360
2016-06-02T06:31:56.988Z,380
2016-06-02T06:32:56.960Z,395
2016-06-02T06:33:56.931Z,425
2016-06-02T06:34:56.840Z,440
2016-06-02T06:35:57.015Z,465
2016-06-02T06:36:57.112Z,480
2016-06-02T06:37:58.332Z,470
2016-06-02T06:38:57.195Z,470
2016-06-02T06:39:57.478Z,455
2016-06-02T06:40:57.809Z,440
2016-06-02T06:41:57.250Z,405
2016-06-02T06:42:58.986Z,395
2016-06-02T06:43:57.911Z,410
2016-06-02T06:44:57.569Z,430
2016-06-02T06:45:57.417Z,455
2016-06-02T06:46:57.513Z,460
2016-06-02T06:47:57.547Z,440
2016-06-02T06:48:57.971Z,440
2016-06-02T06:49:57.646Z,440
2016-06-02T06:50:57.680Z,420
2016-06-02T06:51:59.260Z,410
2016-06-02T06:52:57.575Z,415
2016-06-02T06:53:57.766Z,395
2016-06-02T06:54:58.613Z,380
2016-06-02T06:55:58.333Z,355
2016-06-02T06:56:57.899Z,345
2016-06-02T06:57:57.963Z,335
2016-06-02T06:58:57.982Z,330
2016-06-02T06:59:58.938Z,325
2016-06-02T07:00:58.707Z,335
2016-06-02T07:01:58.990Z,325
2016-06-02T07:02:59.727Z,300
2016-06-02T07:03:58.309Z,280
2016-06-02T07:04:59.654Z,275
2016-06-02T07:05:59.470Z,275
2016-06-02T07:06:58.456Z,260
2016-06-02T07:07:59.615Z,255
2016-06-02T07:09:00.728Z,250
2016-06-02T07:09:58.512Z,245
2016-06-02T07:10:59.952Z,240
2016-06-02T07:11:58.456Z,235
2016-06-02T07:12:58.817Z,230
2016-06-02T07:13:58.506Z,225
2016-06-02T07:14:59.276Z,220
2016-06-02T07:15:58.575Z,215
2016-06-02T07:16:59.015Z,215
2016-06-02T07:17:59.128Z,215
2016-06-02T07:18:59.021Z,215
2016-06-02T07:19:59.554Z,220
2016-06-02T07:21:00.323Z,220
2016-06-02T07:22:04.014Z,225
2016-06-02T07:23:02.078Z,230
2016-06-02T07:24:01.175Z,230
2016-06-02T07:25:03.459Z,235
2016-06-02T07:26:03.461Z,240
2016-06-02T07:27:00.574Z,245
2016-06-02T07:28:01.514Z,255
2016-06-02T07:29:01.719Z,265
2016-06-02T07:30:02.207Z,270
2016-06-02T07:31:01.788Z,275
2016-06-02T07:32:02.196Z,285
2016-06-02T07:33:02.137Z,295
2016-06-02T07:34:01.452Z,300
2016-06-02T07:35:01.533Z,310
2016-06-02T07:35:59.723Z,325
2016-06-02T07:36:59.507Z,325
2016-06-02T07:38:00.946Z,335
2016-06-02T07:39:01.934Z,345
2016-06-02T07:40:03.452Z,350
2016-06-02T07:41:01.674Z,350
2016-06-02T07:41:59.911Z,350
2016-06-02T07:43:01.945Z,345
2016-06-02T07:44:01.384Z,345
2016-06-02T07:45:00.419Z,345
2016-06-02T07:46:00.468Z,345
2016-06-02T07:47:00.034Z,345
2016-06-02T07:47:59.990Z,345
2016-06-02T07:48:59.992Z,345
2016-06-02T07:50:00.151Z,340
2016-06-02T07:51:00.263Z,335
2016-06-02T07:52:00.328Z,340
2016-06-02T07:53:00.284Z,335
2016-06-02T07:54:00.147Z,335
2016-06-02T07:55:00.414Z,330
2016-06-02T07:56:01.683Z,325
2016-06-02T07:57:00.451Z,320
2016-06-02T07:58:00.391Z,315
2016-06-02T07:59:00.550Z,310
2016-06-02T08:00:00.803Z,310
2016-06-02T08:01:01.259Z,305
2016-06-02T08:02:00.730Z,305
2016-06-02T08:03:00.560Z,295
2016-06-02T08:04:01.423Z,290
2016-06-02T08:05:03.176Z,285
2016-06-02T08:06:01.896Z,285
2016-06-02T08:07:03.197Z,280
2016-06-02T08:08:07.449Z,280
2016-06-02T08:09:04.654Z,275
2016-06-02T08:10:07.096Z,275
2016-06-02T08:11:09.270Z,275
2016-06-02T08:12:08.303Z,280
2016-06-02T08:13:08.510Z,280
2016-06-02T08:14:08.059Z,270
2016-06-02T08:15:07.124Z,270
2016-06-02T08:16:07.205Z,265
2016-06-02T08:17:10.130Z,270
2016-06-02T08:18:09.492Z,265
2016-06-02T08:19:07.666Z,260
2016-06-02T08:20:07.951Z,255
2016-06-02T08:21:05.703Z,255
2016-06-02T08:22:08.222Z,260
2016-06-02T08:23:11.255Z,260
2016-06-02T08:24:08.024Z,255
2016-06-02T08:25:07.917Z,255
2016-06-02T08:26:05.733Z,260
2016-06-02T08:27:39.532Z,255
2016-06-02T08:28:06.769Z,250
2016-06-02T08:29:05.912Z,250
2016-06-02T08:30:05.461Z,250
2016-06-02T08:31:03.949Z,255
2016-06-02T08:32:03.171Z,255
2016-06-02T08:33:07.016Z,255
2016-06-02T08:34:04.847Z,260
2016-06-02T08:35:18.460Z,270
2016-06-02T08:36:06.541Z,270
2016-06-02T08:37:04.730Z,270
2016-06-02T08:38:02.654Z,270
2016-06-02T08:39:03.876Z,270
2016-06-02T08:40:03.676Z,280
2016-06-02T08:41:03.037Z,295
2016-06-02T08:42:05.915Z,310
2016-06-02T08:43:04.887Z,300
2016-06-02T08:44:06.561Z,300
2016-06-02T08:45:05.111Z,310
2016-06-02T08:46:06.004Z,320
2016-06-02T08:47:05.023Z,335
2016-06-02T08:48:07.681Z,355
2016-06-02T08:49:08.466Z,370
2016-06-02T08:50:06.656Z,360
2016-06-02T08:51:06.752Z,365
2016-06-02T08:52:07.396Z,380
2016-06-02T08:53:10.227Z,400
2016-06-02T08:54:06.183Z,430
2016-06-02T08:55:08.482Z,420
2016-06-02T08:56:11.328Z,430
2016-06-02T08:57:09.299Z,440
2016-06-02T08:58:09.849Z,425
2016-06-02T08:59:09.196Z,420
2016-06-02T09:00:13.011Z,440
2016-06-02T09:01:12.577Z,450
2016-06-02T09:02:10.782Z,450
2016-06-02T09:03:08.519Z,445
2016-06-02T09:04:07.709Z,445
2016-06-02T09:05:06.322Z,445
2016-06-02T09:06:09.387Z,470
2016-06-02T09:07:07.265Z,495
2016-06-02T09:08:11.877Z,490
2016-06-02T09:09:11.270Z,500
2016-06-02T09:10:14.101Z,480
2016-06-02T09:11:25.276Z,440
2016-06-02T09:12:12.512Z,425
2016-06-02T09:13:13.670Z,445
2016-06-02T09:14:11.486Z,455
2016-06-02T09:15:07.443Z,440
2016-06-02T09:16:05.226Z,440
2016-06-02T09:17:11.979Z,445
2016-06-02T09:18:06.856Z,465
2016-06-02T09:19:07.484Z,510
2016-06-02T09:20:06.628Z,550
2016-06-02T09:21:09.614Z,560
2016-06-02T09:22:05.712Z,590
2016-06-02T09:23:05.479Z,590
2016-06-02T09:24:05.076Z,580
2016-06-02T09:25:06.094Z,560
2016-06-02T09:26:04.971Z,555
2016-06-02T09:27:04.412Z,595
2016-06-02T09:28:04.587Z,605
2016-06-02T09:29:04.636Z,585
2016-06-02T09:30:04.873Z,540
2016-06-02T09:31:08.157Z,500
2016-06-02T09:32:04.863Z,475
2016-06-02T09:33:04.725Z,460
2016-06-02T09:34:04.758Z,470
2016-06-02T09:35:04.808Z,440
2016-06-02T09:36:04.686Z,425
2016-06-02T09:37:05.049Z,415
2016-06-02T09:38:04.973Z,390
2016-06-02T09:39:05.288Z,365
2016-06-02T09:40:05.181Z,355
2016-06-02T09:41:06.153Z,355
2016-06-02T09:42:04.984Z,350
2016-06-02T09:43:05.002Z,365
2016-06-02T09:44:05.176Z,390
2016-06-02T09:45:05.226Z,410
2016-06-02T09:46:05.150Z,440
2016-06-02T09:47:05.669Z,460
2016-06-02T09:48:05.375Z,505
2016-06-02T09:49:05.409Z,565
2016-06-02T09:50:05.521Z,585
2016-06-02T09:51:05.601Z,605
2016-06-02T09:52:05.557Z,610
2016-06-02T09:53:05.481Z,600
2016-06-02T09:54:05.704Z,575
2016-06-02T09:55:05.940Z,565
2016-06-02T09:56:06.100Z,560
2016-06-02T09:57:05.945Z,580
2016-06-02T09:58:05.839Z,620
2016-06-02T09:59:05.873Z,635
2016-06-02T10:00:05.923Z,620
2016-06-02T10:01:06.035Z,590
2016-06-02T10:02:06.006Z,605
2016-06-02T10:03:06.056Z,635
2016-06-02T10:04:06.152Z,610
2016-06-02T10:05:06.155Z,580
2016-06-02T10:06:06.564Z,520
2016-06-02T10:07:06.113Z,485
2016-06-02T10:08:06.350Z,510
2016-06-02T10:09:06.337Z,495
2016-06-02T10:10:06.403Z,470
2016-06-02T10:11:06.452Z,500
2016-06-02T10:12:06.829Z,550
2016-06-02T10:13:06.598Z,615
2016-06-02T10:14:06.554Z,650
2016-06-02T10:15:06.635Z,590
2016-06-02T10:16:06.653Z,525
2016-06-02T10:17:06.749Z,500
2016-06-02T10:18:06.798Z,500
2016-06-02T10:19:06.880Z,490
2016-06-02T10:20:06.726Z,470
2016-06-02T10:21:06.839Z,485
2016-06-02T10:22:06.982Z,505
2016-06-02T10:23:07.938Z,525
2016-06-02T10:24:07.128Z,535
2016-06-02T10:25:07.209Z,525
2016-06-02T10:26:07.227Z,495
2016-06-02T10:27:07.027Z,490
2016-06-02T10:28:07.200Z,480
2016-06-02T10:29:07.673Z,470
2016-06-02T10:30:07.191Z,495
2016-06-02T10:31:07.350Z,595
2016-06-02T10:32:07.274Z,650
2016-06-02T10:33:07.277Z,630
2016-06-02T10:34:07.483Z,645
2016-06-02T10:35:07.408Z,625
2016-06-02T10:36:07.629Z,610
2016-06-02T10:37:08.647Z,1150
2016-06-02T10:38:07.666Z,2270
2016-06-02T10:39:07.605Z,2225
2016-06-02T10:40:07.733Z,505
2016-06-02T10:41:09.095Z,490
2016-06-02T10:42:07.926Z,530
2016-06-02T10:43:07.960Z,610
2016-06-02T10:44:07.979Z,2355
2016-06-02T10:45:08.731Z,3700
2016-06-02T10:46:08.093Z,3545
2016-06-02T10:47:08.252Z,2360
2016-06-02T10:48:08.177Z,3765
2016-06-02T10:49:08.210Z,3790
2016-06-02T10:50:08.167Z,3830
2016-06-02T10:51:08.420Z,3830
2016-06-02T10:52:09.126Z,3820
2016-06-02T10:53:08.440Z,3755
2016-06-02T10:54:08.506Z,3730
2016-06-02T10:55:08.351Z,3690
2016-06-02T10:56:08.808Z,3710
2016-06-02T10:57:08.685Z,3680
2016-06-02T10:58:08.689Z,3655
2016-06-02T10:59:08.769Z,3670
2016-06-02T11:00:10.490Z,3675
2016-06-02T11:01:08.836Z,3670
2016-06-02T11:02:09.230Z,3630
2016-06-02T11:03:11.655Z,3575
2016-06-02T11:04:09.376Z,3560
2016-06-02T11:05:09.128Z,3555
2016-06-02T11:06:08.928Z,3560
2016-06-02T11:07:09.369Z,3540
2016-06-02T11:08:09.419Z,3555
2016-06-02T11:09:09.264Z,3550
2016-06-02T11:10:09.345Z,3530
2016-06-02T11:11:09.769Z,3515
2016-06-02T11:12:09.569Z,3510
2016-06-02T11:13:09.774Z,3510
2016-06-02T11:14:09.669Z,3485
2016-06-02T11:15:12.671Z,3515
2016-06-02T11:16:13.987Z,3730
2016-06-02T11:17:15.536Z,3945
2016-06-02T11:18:14.461Z,4110
2016-06-02T11:19:12.620Z,4245
2016-06-02T11:20:12.356Z,640
2016-06-02T11:21:12.937Z,610
2016-06-02T11:22:14.659Z,1350
2016-06-02T11:23:10.177Z,4200
2016-06-02T11:24:10.304Z,1240
2016-06-02T11:25:10.745Z,4150
2016-06-02T11:26:10.106Z,4215
2016-06-02T11:27:10.562Z,4230
2016-06-02T11:28:10.472Z,4225
2016-06-02T11:29:10.631Z,4230
2016-06-02T11:30:11.275Z,4265
2016-06-02T11:31:10.917Z,1090
2016-06-02T11:32:10.372Z,3005
2016-06-02T11:33:10.626Z,4135
2016-06-02T11:34:10.816Z,4125
2016-06-02T11:35:10.709Z,4120
2016-06-02T11:36:11.166Z,4155
2016-06-02T11:37:12.339Z,3340
2016-06-02T11:38:11.342Z,4100
2016-06-02T11:39:11.142Z,4125
2016-06-02T11:40:11.879Z,4120
2016-06-02T11:41:11.241Z,3725
2016-06-02T11:42:12.853Z,3965
2016-06-02T11:43:11.872Z,3965
2016-06-02T11:44:11.968Z,4070
2016-06-02T11:45:11.440Z,2405
2016-06-02T11:46:12.130Z,3900
2016-06-02T11:47:11.632Z,725
2016-06-02T11:48:11.948Z,615
2016-06-02T11:49:11.793Z,535
2016-06-02T11:50:12.281Z,470
2016-06-02T11:51:11.737Z,460
2016-06-02T11:52:11.771Z,550
2016-06-02T11:53:12.243Z,1275
2016-06-02T11:54:11.885Z,870
2016-06-02T11:55:12.201Z,3845
2016-06-02T11:56:12.907Z,3205
2016-06-02T11:57:12.222Z,4005
2016-06-02T11:58:12.287Z,2715
2016-06-02T11:59:12.117Z,990
2016-06-02T12:00:12.402Z,765
2016-06-02T12:01:12.436Z,555
2016-06-02T12:02:12.564Z,570
2016-06-02T12:03:12.441Z,4200
2016-06-02T12:04:13.037Z,4160
2016-06-02T12:05:12.899Z,4095
2016-06-02T12:06:13.433Z,4110
2016-06-02T12:07:14.920Z,4115
2016-06-02T12:08:13.642Z,1720
2016-06-02T12:09:12.973Z,695
2016-06-02T12:10:13.100Z,630
2016-06-02T12:11:15.915Z,565
2016-06-02T12:12:15.216Z,620
2016-06-02T12:13:13.374Z,735
2016-06-02T12:14:15.893Z,630
2016-06-02T12:15:17.239Z,665
2016-06-02T12:16:13.398Z,1220
2016-06-02T12:17:13.197Z,4130
2016-06-02T12:18:13.559Z,3985
2016-06-02T12:19:13.171Z,3915
2016-06-02T12:20:13.409Z,3940
2016-06-02T12:21:13.568Z,3930
2016-06-02T12:22:13.648Z,3880
2016-06-02T12:23:13.557Z,3870
2016-06-02T12:24:13.482Z,3865
2016-06-02T12:25:18.891Z,3910
2016-06-02T12:26:13.909Z,3980
2016-06-02T12:27:14.381Z,3955
2016-06-02T12:28:13.993Z,3945
2016-06-02T12:29:14.276Z,3905
2016-06-02T12:30:14.139Z,3955
2016-06-02T12:31:14.172Z,3955
2016-06-02T12:32:19.738Z,3920
2016-06-02T12:33:14.147Z,3915
2016-06-02T12:34:18.456Z,3895
2016-06-02T12:35:16.393Z,3930
2016-06-02T12:36:19.704Z,4000
2016-06-02T12:37:19.843Z,2700
2016-06-02T12:38:16.937Z,1885
2016-06-02T12:39:14.695Z,530
2016-06-02T12:40:19.942Z,530
2016-06-02T12:41:16.533Z,575
2016-06-02T12:42:15.030Z,595
2016-06-02T12:43:15.090Z,630
2016-06-02T12:44:17.241Z,710
2016-06-02T12:45:16.465Z,795
2016-06-02T12:46:15.301Z,1205
2016-06-02T12:47:18.712Z,465
2016-06-02T12:48:15.421Z,435
2016-06-02T12:49:15.552Z,440
2016-06-02T12:50:15.212Z,465
2016-06-02T12:51:15.575Z,470
2016-06-02T12:52:15.657Z,545
2016-06-02T12:53:15.739Z,3715
2016-06-02T12:54:17.352Z,570
2016-06-02T12:55:16.308Z,540
2016-06-02T12:56:15.889Z,575
2016-06-02T12:57:15.908Z,665
2016-06-02T12:58:15.959Z,760
2016-06-02T12:59:15.883Z,765
2016-06-02T13:00:16.168Z,725
2016-06-02T13:01:16.140Z,780
2016-06-02T13:02:16.017Z,3695
2016-06-02T13:03:16.348Z,3495
2016-06-02T13:04:16.179Z,2250
2016-06-02T13:05:22.182Z,3920
2016-06-02T13:06:18.512Z,2515
2016-06-02T13:07:17.859Z,1830
2016-06-02T13:08:16.753Z,2050
2016-06-02T13:09:19.224Z,1485
2016-06-02T13:10:19.680Z,1590
2016-06-02T13:11:16.807Z,1770
2016-06-02T13:12:16.842Z,1375
2016-06-02T13:13:17.313Z,1175
2016-06-02T13:14:16.926Z,1690
2016-06-02T13:15:16.803Z,1490
2016-06-02T13:16:19.790Z,1160
2016-06-02T13:17:16.903Z,2335
2016-06-02T13:18:22.295Z,2755
2016-06-02T13:19:17.111Z,2260
2016-06-02T13:20:17.628Z,3265
2016-06-02T13:21:17.459Z,3365
2016-06-02T13:22:18.931Z,1740
2016-06-02T13:23:20.106Z,940
2016-06-02T13:24:17.296Z,2475
2016-06-02T13:25:18.986Z,3095
2016-06-02T13:26:17.566Z,1780
2016-06-02T13:27:17.475Z,715
2016-06-02T13:28:17.478Z,620
2016-06-02T13:29:17.575Z,575
2016-06-02T13:30:17.796Z,570
2016-06-02T13:31:17.908Z,585
2016-06-02T13:32:18.599Z,640
2016-06-02T13:33:17.789Z,825
2016-06-02T13:34:18.979Z,1310
2016-06-02T13:35:18.091Z,2090
2016-06-02T13:36:18.094Z,1495
2016-06-02T13:37:18.471Z,3290
2016-06-02T13:38:18.084Z,3290
2016-06-02T13:39:19.820Z,1625
2016-06-02T13:40:19.449Z,1015
2016-06-02T13:41:18.357Z,965
2016-06-02T13:42:18.610Z,760
2016-06-02T13:43:18.473Z,680
2016-06-02T13:44:18.365Z,615
2016-06-02T13:45:18.961Z,605
2016-06-02T13:46:18.684Z,620
2016-06-02T13:47:18.686Z,595
2016-06-02T13:48:18.767Z,550
2016-06-02T13:49:20.378Z,510
2016-06-02T13:50:18.991Z,475
2016-06-02T13:51:18.900Z,450
2016-06-02T13:52:18.965Z,445
2016-06-02T13:53:19.030Z,480
2016-06-02T13:54:19.080Z,535
2016-06-02T13:55:19.270Z,590
2016-06-02T13:56:19.225Z,620
2016-06-02T13:57:19.056Z,665
2016-06-02T13:58:19.138Z,880
2016-06-02T13:59:19.343Z,2215
2016-06-02T14:00:20.799Z,2355
2016-06-02T14:01:19.286Z,2120
2016-06-02T14:02:19.929Z,2095